sensor_id;sensor_type;location;lat;lon;timestamp;pressure;altitude;pressure_sealevel;temperature;humidity
5350;BME280;2697;42.144;24.794;2023-06-04T00:00:24;157371.91;;;18.58;100.00
5350;BME280;2697;42.144;24.794;2023-06-04T00:02:50;157370.56;;;18.58;100.00
5350;BME280;2697;42.144;24.794;2023-06-04T00:05:15;157326.84;;;18.41;100.00
5350;BME280;2697;42.144;24.794;2023-06-04T00:07:40;157346.72;;;18.48;100.00
5350;BME280;2697;42.144;24.794;2023-06-04T00:10:06;157381.19;;;18.62;100.00
5350;BME280;2697;42.144;24.794;2023-06-04T00:12:31;157373.22;;;18.59;100.00
5350;BME280;2697;42.144;24.794;2023-06-04T00:14:57;157403.72;;;18.70;100.00
5350;BME280;2697;42.144;24.794;2023-06-04T00:17:22;157328.16;;;18.41;100.00
5350;BME280;2697;42.144;24.794;2023-06-04T00:19:48;157309.66;;;18.34;100.00
5350;BME280;2697;42.144;24.794;2023-06-04T00:22:13;157336.16;;;18.44;100.00
5350;BME280;2697;42.144;24.794;2023-06-04T00:24:38;157399.75;;;18.69;100.00
5350;BME280;2697;42.144;24.794;2023-06-04T00:27:08;157314.94;;;18.36;100.00
5350;BME280;2697;42.144;24.794;2023-06-04T00:29:33;157308.34;;;18.34;100.00
5350;BME280;2697;42.144;24.794;2023-06-04T00:31:59;157296.41;;;18.29;100.00
5350;BME280;2697;42.144;24.794;2023-06-04T00:34:24;157256.66;;;18.14;100.00
5350;BME280;2697;42.144;24.794;2023-06-04T00:36:50;157261.97;;;18.16;100.00
5350;BME280;2697;42.144;24.794;2023-06-04T00:39:15;157219.59;;;18.00;100.00
5350;BME280;2697;42.144;24.794;2023-06-04T00:41:40;157268.59;;;18.18;100.00
5350;BME280;2697;42.144;24.794;2023-06-04T00:44:06;157260.66;;;18.15;100.00
5350;BME280;2697;42.144;24.794;2023-06-04T00:46:32;157238.13;;;18.07;100.00
5350;BME280;2697;42.144;24.794;2023-06-04T00:48:58;157211.66;;;17.97;100.00
5350;BME280;2697;42.144;24.794;2023-06-04T00:51:23;156391.00;;;17.85;100.00
5350;BME280;2697;42.144;24.794;2023-06-04T00:53:50;157154.69;;;17.75;100.00
5350;BME280;2697;42.144;24.794;2023-06-04T00:56:16;147684.00;;;17.93;100.00
5350;BME280;2697;42.144;24.794;2023-06-04T00:58:41;131477.63;;;17.78;100.00
5350;BME280;2697;42.144;24.794;2023-06-04T01:01:15;121664.47;;;17.77;100.00
5350;BME280;2697;42.144;24.794;2023-06-04T01:03:45;100339.75;;;17.58;100.00
5350;BME280;2697;42.144;24.794;2023-06-04T01:06:45;95487.88;;;17.69;100.00
5350;BME280;2697;42.144;24.794;2023-06-04T01:09:13;113642.19;;;17.87;100.00
5350;BME280;2697;42.144;24.794;2023-06-04T01:11:39;119589.34;;;17.89;100.00
5350;BME280;2697;42.144;24.794;2023-06-04T01:14:07;114698.03;;;17.91;100.00
5350;BME280;2697;42.144;24.794;2023-06-04T01:16:54;112935.94;;;17.83;100.00
5350;BME280;2697;42.144;24.794;2023-06-04T01:22:03;121363.50;;;18.02;100.00
5350;BME280;2697;42.144;24.794;2023-06-04T01:24:34;131530.72;;;18.03;100.00
5350;BME280;2697;42.144;24.794;2023-06-04T01:27:04;145259.13;;;18.10;100.00
5350;BME280;2697;42.144;24.794;2023-06-04T01:29:31;154477.91;;;18.20;100.00
5350;BME280;2697;42.144;24.794;2023-06-04T01:31:57;157314.94;;;18.36;100.00
5350;BME280;2697;42.144;24.794;2023-06-04T01:34:23;152088.88;;;18.13;100.00
5350;BME280;2697;42.144;24.794;2023-06-04T01:36:49;157283.19;;;18.24;100.00
5350;BME280;2697;42.144;24.794;2023-06-04T01:39:14;157275.19;;;18.21;100.00
5350;BME280;2697;42.144;24.794;2023-06-04T01:41:39;157288.47;;;18.26;100.00
5350;BME280;2697;42.144;24.794;2023-06-04T01:44:05;157269.91;;;18.19;100.00
5350;BME280;2697;42.144;24.794;2023-06-04T01:46:30;157283.19;;;18.24;100.00
5350;BME280;2697;42.144;24.794;2023-06-04T01:48:56;157301.69;;;18.31;100.00
5350;BME280;2697;42.144;24.794;2023-06-04T01:51:21;157309.66;;;18.34;100.00
5350;BME280;2697;42.144;24.794;2023-06-04T01:53:46;157322.88;;;18.39;100.00
5350;BME280;2697;42.144;24.794;2023-06-04T01:56:12;157320.25;;;18.38;100.00
5350;BME280;2697;42.144;24.794;2023-06-04T01:58:38;157304.31;;;18.32;100.00
5350;BME280;2697;42.144;24.794;2023-06-04T02:01:03;157320.25;;;18.38;100.00
5350;BME280;2697;42.144;24.794;2023-06-04T02:03:30;157260.66;;;18.15;100.00
5350;BME280;2697;42.144;24.794;2023-06-04T02:06:04;157280.50;;;18.23;100.00
5350;BME280;2697;42.144;24.794;2023-06-04T02:08:33;157284.50;;;18.25;100.00
5350;BME280;2697;42.144;24.794;2023-06-04T02:10:59;157281.81;;;18.23;100.00
5350;BME280;2697;42.144;24.794;2023-06-04T02:13:24;157292.44;;;18.28;100.00
5350;BME280;2697;42.144;24.794;2023-06-04T02:15:50;157314.94;;;18.36;100.00
5350;BME280;2697;42.144;24.794;2023-06-04T02:18:17;157288.47;;;18.26;100.00
5350;BME280;2697;42.144;24.794;2023-06-04T02:20:46;157247.41;;;18.10;100.00
5350;BME280;2697;42.144;24.794;2023-06-04T02:23:13;157248.72;;;18.11;100.00
5350;BME280;2697;42.144;24.794;2023-06-04T02:25:38;157254.00;;;18.13;100.00
5350;BME280;2697;42.144;24.794;2023-06-04T02:28:04;157222.25;;;18.01;100.00
5350;BME280;2697;42.144;24.794;2023-06-04T02:30:29;149740.22;;;17.70;100.00
5350;BME280;2697;42.144;24.794;2023-06-04T02:32:55;133575.16;;;17.75;100.00
5350;BME280;2697;42.144;24.794;2023-06-04T02:35:21;143434.66;;;17.83;100.00
5350;BME280;2697;42.144;24.794;2023-06-04T02:37:51;154545.66;;;17.91;100.00
5350;BME280;2697;42.144;24.794;2023-06-04T02:40:16;157230.16;;;18.04;100.00
5350;BME280;2697;42.144;24.794;2023-06-04T02:42:42;157219.59;;;18.00;100.00
5350;BME280;2697;42.144;24.794;2023-06-04T02:45:08;153651.44;;;17.99;100.00
5350;BME280;2697;42.144;24.794;2023-06-04T02:47:33;145895.97;;;17.82;100.00
5350;BME280;2697;42.144;24.794;2023-06-04T02:49:58;137099.09;;;17.80;100.00
5350;BME280;2697;42.144;24.794;2023-06-04T02:52:24;133940.81;;;17.81;100.00
5350;BME280;2697;42.144;24.794;2023-06-04T02:54:50;145564.75;;;17.91;100.00
5350;BME280;2697;42.144;24.794;2023-06-04T02:57:16;139202.78;;;17.78;100.00
5350;BME280;2697;42.144;24.794;2023-06-04T02:59:41;141326.41;;;17.84;100.00
5350;BME280;2697;42.144;24.794;2023-06-04T03:02:07;157244.75;;;18.09;100.00
5350;BME280;2697;42.144;24.794;2023-06-04T03:04:32;157248.72;;;18.11;100.00
5350;BME280;2697;42.144;24.794;2023-06-04T03:07:03;157242.09;;;18.08;100.00
5350;BME280;2697;42.144;24.794;2023-06-04T03:09:32;151190.94;;;17.98;100.00
5350;BME280;2697;42.144;24.794;2023-06-04T03:11:59;148778.56;;;18.09;100.00
5350;BME280;2697;42.144;24.794;2023-06-04T03:14:28;157281.81;;;18.23;100.00
5350;BME280;2697;42.144;24.794;2023-06-04T03:17:00;157304.31;;;18.32;100.00
5350;BME280;2697;42.144;24.794;2023-06-04T03:19:34;157345.41;;;18.48;100.00
5350;BME280;2697;42.144;24.794;2023-06-04T03:22:00;157363.97;;;18.55;100.00
5350;BME280;2697;42.144;24.794;2023-06-04T03:24:26;157345.41;;;18.48;100.00
5350;BME280;2697;42.144;24.794;2023-06-04T03:26:51;157362.63;;;18.55;100.00
5350;BME280;2697;42.144;24.794;2023-06-04T03:29:17;157428.94;;;18.80;100.00
5350;BME280;2697;42.144;24.794;2023-06-04T03:31:44;157455.44;;;18.90;100.00
5350;BME280;2697;42.144;24.794;2023-06-04T03:34:10;157436.88;;;18.83;100.00
5350;BME280;2697;42.144;24.794;2023-06-04T03:36:35;157406.41;;;18.71;100.00
5350;BME280;2697;42.144;24.794;2023-06-04T03:39:03;157428.94;;;18.80;100.00
5350;BME280;2697;42.144;24.794;2023-06-04T03:41:29;157471.31;;;18.96;100.00
5350;BME280;2697;42.144;24.794;2023-06-04T03:43:55;157455.44;;;18.90;100.00
5350;BME280;2697;42.144;24.794;2023-06-04T03:46:20;157427.56;;;18.79;100.00
5350;BME280;2697;42.144;24.794;2023-06-04T03:48:46;157487.22;;;19.02;100.00
5350;BME280;2697;42.144;24.794;2023-06-04T03:51:11;157495.16;;;19.05;100.00
5350;BME280;2697;42.144;24.794;2023-06-04T03:53:37;157439.53;;;18.84;100.00
5350;BME280;2697;42.144;24.794;2023-06-04T03:56:02;157472.63;;;18.97;100.00
5350;BME280;2697;42.144;24.794;2023-06-04T03:58:28;157572.03;;;19.35;100.00
5350;BME280;2697;42.144;24.794;2023-06-04T04:00:53;157529.66;;;19.19;100.00
5350;BME280;2697;42.144;24.794;2023-06-04T04:03:19;157484.59;;;19.01;100.00
5350;BME280;2697;42.144;24.794;2023-06-04T04:05:45;157601.22;;;19.46;100.00
5350;BME280;2697;42.144;24.794;2023-06-04T04:08:10;157630.44;;;19.57;100.00
5350;BME280;2697;42.144;24.794;2023-06-04T04:10:36;157629.13;;;19.57;100.00
5350;BME280;2697;42.144;24.794;2023-06-04T04:13:01;157569.38;;;19.34;100.00
5350;BME280;2697;42.144;24.794;2023-06-04T04:15:27;157585.31;;;19.40;100.00
5350;BME280;2697;42.144;24.794;2023-06-04T04:17:52;157635.72;;;19.59;100.00
5350;BME280;2697;42.144;24.794;2023-06-04T04:20:18;157715.25;;;19.90;100.00
5350;BME280;2697;42.144;24.794;2023-06-04T04:22:43;157647.69;;;19.64;100.00
5350;BME280;2697;42.144;24.794;2023-06-04T04:25:09;157692.72;;;19.81;100.00
5350;BME280;2697;42.144;24.794;2023-06-04T04:27:34;157656.94;;;19.68;100.00
5350;BME280;2697;42.144;24.794;2023-06-04T04:30:05;157694.03;;;19.82;100.00
5350;BME280;2697;42.144;24.794;2023-06-04T04:32:30;157694.03;;;19.82;100.00
5350;BME280;2697;42.144;24.794;2023-06-04T04:34:56;157711.28;;;19.88;100.00
5350;BME280;2697;42.144;24.794;2023-06-04T04:37:22;157654.31;;;19.67;100.00
5350;BME280;2697;42.144;24.794;2023-06-04T04:39:48;157663.56;;;19.70;100.00
5350;BME280;2697;42.144;24.794;2023-06-04T04:42:17;157694.03;;;19.82;100.00
5350;BME280;2697;42.144;24.794;2023-06-04T04:44:42;157720.59;;;19.92;100.00
5350;BME280;2697;42.144;24.794;2023-06-04T04:47:12;157769.69;;;20.11;100.00
5350;BME280;2697;42.144;24.794;2023-06-04T04:49:38;157817.41;;;20.29;100.00
5350;BME280;2697;42.144;24.794;2023-06-04T04:52:03;157903.66;;;20.62;100.00
5350;BME280;2697;42.144;24.794;2023-06-04T04:54:28;157816.06;;;20.29;100.00
5350;BME280;2697;42.144;24.794;2023-06-04T04:56:54;157778.94;;;20.14;100.00
5350;BME280;2697;42.144;24.794;2023-06-04T04:59:19;157857.22;;;20.44;100.00
5350;BME280;2697;42.144;24.794;2023-06-04T05:01:45;157816.06;;;20.29;100.00
5350;BME280;2697;42.144;24.794;2023-06-04T05:04:10;157918.28;;;20.68;100.00
5350;BME280;2697;42.144;24.794;2023-06-04T05:06:37;157985.91;;;20.94;100.00
5350;BME280;2697;42.144;24.794;2023-06-04T05:09:02;158089.53;;;21.33;100.00
5350;BME280;2697;42.144;24.794;2023-06-04T05:11:29;158132.00;;;21.50;100.00
5350;BME280;2697;42.144;24.794;2023-06-04T05:13:54;158117.38;;;21.44;100.00
5350;BME280;2697;42.144;24.794;2023-06-04T05:16:19;158169.16;;;21.64;100.00
5350;BME280;2697;42.144;24.794;2023-06-04T05:18:45;158112.09;;;21.42;100.00
5350;BME280;2697;42.144;24.794;2023-06-04T05:21:11;158198.34;;;21.75;100.00
5350;BME280;2697;42.144;24.794;2023-06-04T05:23:41;158044.34;;;21.16;100.00
5350;BME280;2697;42.144;24.794;2023-06-04T05:26:07;158198.34;;;21.75;100.00
5350;BME280;2697;42.144;24.794;2023-06-04T05:28:33;158198.34;;;21.75;100.00
5350;BME280;2697;42.144;24.794;2023-06-04T05:30:58;157996.56;;;20.98;100.00
5350;BME280;2697;42.144;24.794;2023-06-04T05:33:28;158193.06;;;21.73;100.00
5350;BME280;2697;42.144;24.794;2023-06-04T05:35:55;158189.06;;;21.72;100.00
5350;BME280;2697;42.144;24.794;2023-06-04T05:38:23;158134.66;;;21.51;100.00
5350;BME280;2697;42.144;24.794;2023-06-04T05:40:51;158295.34;;;22.12;100.00
5350;BME280;2697;42.144;24.794;2023-06-04T05:43:17;158453.44;;;22.73;100.00
5350;BME280;2697;42.144;24.794;2023-06-04T05:45:43;158575.75;;;23.20;100.00
5350;BME280;2697;42.144;24.794;2023-06-04T05:48:08;158546.50;;;23.09;100.00
5350;BME280;2697;42.144;24.794;2023-06-04T05:50:33;158555.78;;;23.12;100.00
5350;BME280;2697;42.144;24.794;2023-06-04T05:52:59;158650.16;;;23.48;99.71
5350;BME280;2697;42.144;24.794;2023-06-04T05:55:24;158655.47;;;23.50;98.41
5350;BME280;2697;42.144;24.794;2023-06-04T05:57:50;158667.47;;;23.55;95.96
5350;BME280;2697;42.144;24.794;2023-06-04T06:00:18;158647.50;;;23.47;95.34
5350;BME280;2697;42.144;24.794;2023-06-04T06:02:44;158465.38;;;22.77;100.00
5350;BME280;2697;42.144;24.794;2023-06-04T06:05:10;158385.66;;;22.47;100.00
5350;BME280;2697;42.144;24.794;2023-06-04T06:07:36;158401.63;;;22.53;100.00
5350;BME280;2697;42.144;24.794;2023-06-04T06:10:02;158624.91;;;23.39;100.00
5350;BME280;2697;42.144;24.794;2023-06-04T06:12:28;158551.81;;;23.11;100.00
5350;BME280;2697;42.144;24.794;2023-06-04T06:14:53;158722.00;;;23.76;98.41
5350;BME280;2697;42.144;24.794;2023-06-04T06:17:18;158751.25;;;23.87;95.87
5350;BME280;2697;42.144;24.794;2023-06-04T06:19:44;158522.59;;;22.99;100.00
5350;BME280;2697;42.144;24.794;2023-06-04T06:22:10;158517.22;;;22.97;100.00
5350;BME280;2697;42.144;24.794;2023-06-04T06:24:35;158425.53;;;22.62;100.00
5350;BME280;2697;42.144;24.794;2023-06-04T06:27:01;158469.34;;;22.79;100.00
5350;BME280;2697;42.144;24.794;2023-06-04T06:29:26;158490.66;;;22.87;100.00
5350;BME280;2697;42.144;24.794;2023-06-04T06:31:52;158557.13;;;23.13;100.00
5350;BME280;2697;42.144;24.794;2023-06-04T06:34:17;158272.72;;;22.04;100.00
5350;BME280;2697;42.144;24.794;2023-06-04T06:36:42;158215.63;;;21.82;100.00
5350;BME280;2697;42.144;24.794;2023-06-04T06:39:09;158174.44;;;21.66;100.00
5350;BME280;2697;42.144;24.794;2023-06-04T06:41:36;158333.88;;;22.27;100.00
5350;BME280;2697;42.144;24.794;2023-06-04T06:44:02;158345.81;;;22.32;100.00
5350;BME280;2697;42.144;24.794;2023-06-04T06:46:27;158309.97;;;22.18;100.00
5350;BME280;2697;42.144;24.794;2023-06-04T06:48:52;158445.44;;;22.70;100.00
5350;BME280;2697;42.144;24.794;2023-06-04T06:51:18;158400.31;;;22.53;100.00
5350;BME280;2697;42.144;24.794;2023-06-04T06:53:43;158408.25;;;22.56;100.00
5350;BME280;2697;42.144;24.794;2023-06-04T06:56:08;158400.31;;;22.53;100.00
5350;BME280;2697;42.144;24.794;2023-06-04T06:58:34;158312.63;;;22.19;100.00
5350;BME280;2697;42.144;24.794;2023-06-04T07:01:00;158174.44;;;21.66;100.00
5350;BME280;2697;42.144;24.794;2023-06-04T07:03:25;158432.19;;;22.65;100.00
5350;BME280;2697;42.144;24.794;2023-06-04T07:05:51;158396.28;;;22.51;100.00
5350;BME280;2697;42.144;24.794;2023-06-04T07:08:16;158389.66;;;22.48;100.00
5350;BME280;2697;42.144;24.794;2023-06-04T07:10:42;158315.28;;;22.20;100.00
5350;BME280;2697;42.144;24.794;2023-06-04T07:13:08;158436.16;;;22.66;100.00
5350;BME280;2697;42.144;24.794;2023-06-04T07:15:33;158254.16;;;21.97;100.00
5350;BME280;2697;42.144;24.794;2023-06-04T07:17:58;158309.97;;;22.18;100.00
5350;BME280;2697;42.144;24.794;2023-06-04T07:20:24;158446.75;;;22.70;100.00
5350;BME280;2697;42.144;24.794;2023-06-04T07:22:49;158385.66;;;22.47;100.00
5350;BME280;2697;42.144;24.794;2023-06-04T07:25:15;158454.75;;;22.73;100.00
5350;BME280;2697;42.144;24.794;2023-06-04T07:27:40;158315.28;;;22.20;100.00
5350;BME280;2697;42.144;24.794;2023-06-04T07:30:06;158313.94;;;22.19;100.00
5350;BME280;2697;42.144;24.794;2023-06-04T07:32:33;158506.63;;;22.93;100.00
5350;BME280;2697;42.144;24.794;2023-06-04T07:34:58;158456.09;;;22.74;100.00
5350;BME280;2697;42.144;24.794;2023-06-04T07:37:23;158570.44;;;23.18;100.00
5350;BME280;2697;42.144;24.794;2023-06-04T07:39:49;158490.66;;;22.87;100.00
5350;BME280;2697;42.144;24.794;2023-06-04T07:42:14;158347.13;;;22.32;100.00
5350;BME280;2697;42.144;24.794;2023-06-04T07:44:39;158336.53;;;22.28;100.00
5350;BME280;2697;42.144;24.794;2023-06-04T07:47:05;158428.19;;;22.63;100.00
5350;BME280;2697;42.144;24.794;2023-06-04T07:49:30;158290.03;;;22.10;100.00
5350;BME280;2697;42.144;24.794;2023-06-04T07:51:56;158280.75;;;22.07;100.00
5350;BME280;2697;42.144;24.794;2023-06-04T07:54:21;158357.78;;;22.36;100.00
5350;BME280;2697;42.144;24.794;2023-06-04T07:56:47;158214.31;;;21.81;100.00
5350;BME280;2697;42.144;24.794;2023-06-04T07:59:12;158304.66;;;22.16;100.00
5350;BME280;2697;42.144;24.794;2023-06-04T08:01:37;158280.75;;;22.07;100.00
5350;BME280;2697;42.144;24.794;2023-06-04T08:04:03;158203.66;;;21.77;100.00
5350;BME280;2697;42.144;24.794;2023-06-04T08:06:28;158177.09;;;21.67;100.00
5350;BME280;2697;42.144;24.794;2023-06-04T08:08:54;158136.00;;;21.51;100.00
5350;BME280;2697;42.144;24.794;2023-06-04T08:11:20;158145.25;;;21.55;100.00
5350;BME280;2697;42.144;24.794;2023-06-04T08:13:48;158214.31;;;21.81;100.00
5350;BME280;2697;42.144;24.794;2023-06-04T08:16:13;158149.22;;;21.56;100.00
5350;BME280;2697;42.144;24.794;2023-06-04T08:18:39;158219.59;;;21.83;100.00
5350;BME280;2697;42.144;24.794;2023-06-04T08:21:05;158158.56;;;21.60;100.00
5350;BME280;2697;42.144;24.794;2023-06-04T08:23:31;158190.41;;;21.72;100.00
5350;BME280;2697;42.144;24.794;2023-06-04T08:25:57;158207.69;;;21.79;100.00
5350;BME280;2697;42.144;24.794;2023-06-04T08:28:24;158313.94;;;22.19;100.00
5350;BME280;2697;42.144;24.794;2023-06-04T08:30:49;158325.88;;;22.24;100.00
5350;BME280;2697;42.144;24.794;2023-06-04T08:33:15;158420.19;;;22.60;100.00
5350;BME280;2697;42.144;24.794;2023-06-04T08:35:40;158222.25;;;21.84;100.00
5350;BME280;2697;42.144;24.794;2023-06-04T08:38:06;158262.09;;;22.00;100.00
5350;BME280;2697;42.144;24.794;2023-06-04T08:40:32;158248.81;;;21.95;100.00
5350;BME280;2697;42.144;24.794;2023-06-04T08:43:00;158294.00;;;22.12;100.00
5350;BME280;2697;42.144;24.794;2023-06-04T08:45:25;158384.34;;;22.46;100.00
5350;BME280;2697;42.144;24.794;2023-06-04T08:47:52;158402.97;;;22.54;100.00
5350;BME280;2697;42.144;24.794;2023-06-04T08:50:23;158484.03;;;22.85;100.00
5350;BME280;2697;42.144;24.794;2023-06-04T08:52:54;158392.31;;;22.50;100.00
5350;BME280;2697;42.144;24.794;2023-06-04T08:55:20;158365.75;;;22.39;100.00
5350;BME280;2697;42.144;24.794;2023-06-04T08:57:47;158454.75;;;22.73;100.00
5350;BME280;2697;42.144;24.794;2023-06-04T09:00:14;158494.63;;;22.89;100.00
5350;BME280;2697;42.144;24.794;2023-06-04T09:02:40;158594.34;;;23.27;100.00
5350;BME280;2697;42.144;24.794;2023-06-04T09:05:07;158557.13;;;23.13;100.00
5350;BME280;2697;42.144;24.794;2023-06-04T09:07:36;158542.47;;;23.07;100.00
5350;BME280;2697;42.144;24.794;2023-06-04T09:10:04;158660.78;;;23.52;100.00
5350;BME280;2697;42.144;24.794;2023-06-04T09:12:33;158541.16;;;23.07;100.00
5350;BME280;2697;42.144;24.794;2023-06-04T09:15:00;158533.19;;;23.03;100.00
5350;BME280;2697;42.144;24.794;2023-06-04T09:17:27;158712.66;;;23.72;100.00
5350;BME280;2697;42.144;24.794;2023-06-04T09:19:53;158799.13;;;24.05;97.94
5350;BME280;2697;42.144;24.794;2023-06-04T09:22:19;158736.59;;;23.81;99.18
5350;BME280;2697;42.144;24.794;2023-06-04T09:24:47;158744.63;;;23.84;100.00
5350;BME280;2697;42.144;24.794;2023-06-04T09:27:17;158652.81;;;23.49;100.00
5350;BME280;2697;42.144;24.794;2023-06-04T09:29:50;158651.50;;;23.49;98.55
5350;BME280;2697;42.144;24.794;2023-06-04T09:32:23;158671.44;;;23.56;97.28
5350;BME280;2697;42.144;24.794;2023-06-04T09:34:49;158698.06;;;23.67;97.55
5350;BME280;2697;42.144;24.794;2023-06-04T09:37:16;158698.06;;;23.67;98.22
5350;BME280;2697;42.144;24.794;2023-06-04T09:39:56;158909.53;;;24.48;96.98
5350;BME280;2697;42.144;24.794;2023-06-04T09:42:22;158862.97;;;24.30;93.32
5350;BME280;2697;42.144;24.794;2023-06-04T09:44:48;158807.09;;;24.08;91.29
5350;BME280;2697;42.144;24.794;2023-06-04T09:47:14;158825.72;;;24.15;95.59
5350;BME280;2697;42.144;24.794;2023-06-04T09:49:44;158884.25;;;24.38;91.61
5350;BME280;2697;42.144;24.794;2023-06-04T09:52:10;158921.53;;;24.52;86.51
5350;BME280;2697;42.144;24.794;2023-06-04T09:54:37;158772.53;;;23.95;93.34
5350;BME280;2697;42.144;24.794;2023-06-04T09:57:24;158976.06;;;24.73;84.40
5350;BME280;2697;42.144;24.794;2023-06-04T09:59:50;158937.50;;;24.58;84.99
5350;BME280;2697;42.144;24.794;2023-06-04T10:02:20;158937.50;;;24.58;85.26
5350;BME280;2697;42.144;24.794;2023-06-04T10:04:49;158913.56;;;24.49;87.20
5350;BME280;2697;42.144;24.794;2023-06-04T10:07:19;159038.59;;;24.97;84.78
5350;BME280;2697;42.144;24.794;2023-06-04T10:09:44;158968.09;;;24.70;83.30
5350;BME280;2697;42.144;24.794;2023-06-04T10:12:16;159079.88;;;25.13;81.58
5350;BME280;2697;42.144;24.794;2023-06-04T10:14:49;159017.31;;;24.89;85.52
5350;BME280;2697;42.144;24.794;2023-06-04T10:17:17;159129.16;;;25.32;82.90
5350;BME280;2697;42.144;24.794;2023-06-04T10:19:46;159041.28;;;24.98;79.70
5350;BME280;2697;42.144;24.794;2023-06-04T10:22:13;158934.84;;;24.57;73.20
5350;BME280;2697;42.144;24.794;2023-06-04T10:24:38;158934.84;;;24.57;72.98
5350;BME280;2697;42.144;24.794;2023-06-04T10:27:04;158996.03;;;24.81;73.86
5350;BME280;2697;42.144;24.794;2023-06-04T10:29:36;158993.38;;;24.80;77.24
5350;BME280;2697;42.144;24.794;2023-06-04T10:32:01;159001.34;;;24.83;78.71
5350;BME280;2697;42.144;24.794;2023-06-04T10:34:27;158973.41;;;24.72;81.28
5350;BME280;2697;42.144;24.794;2023-06-04T10:36:52;158996.03;;;24.81;82.73
5350;BME280;2697;42.144;24.794;2023-06-04T10:39:31;159033.28;;;24.95;79.56
5350;BME280;2697;42.144;24.794;2023-06-04T10:41:59;158981.38;;;24.75;83.17
5350;BME280;2697;42.144;24.794;2023-06-04T10:44:24;158852.31;;;24.26;77.10
5350;BME280;2697;42.144;24.794;2023-06-04T10:46:50;158934.84;;;24.57;77.49
5350;BME280;2697;42.144;24.794;2023-06-04T10:49:28;158969.41;;;24.70;90.81
5350;BME280;2697;42.144;24.794;2023-06-04T10:51:55;159062.63;;;25.06;93.33
5350;BME280;2697;42.144;24.794;2023-06-04T10:54:24;159146.44;;;25.38;89.93
5350;BME280;2697;42.144;24.794;2023-06-04T10:56:52;159166.41;;;25.46;91.51
5350;BME280;2697;42.144;24.794;2023-06-04T10:59:18;159049.22;;;25.01;92.29
5350;BME280;2697;42.144;24.794;2023-06-04T11:01:44;158948.13;;;24.62;98.26
5350;BME280;2697;42.144;24.794;2023-06-04T11:04:23;158992.03;;;24.79;97.05
5350;BME280;2697;42.144;24.794;2023-06-04T11:07:00;158902.88;;;24.45;89.49
5350;BME280;2697;42.144;24.794;2023-06-04T11:09:30;158988.06;;;24.78;82.39
5350;BME280;2697;42.144;24.794;2023-06-04T11:11:59;158949.47;;;24.63;87.57
5350;BME280;2697;42.144;24.794;2023-06-04T11:14:25;158974.72;;;24.72;87.97
5350;BME280;2697;42.144;24.794;2023-06-04T11:16:51;158958.81;;;24.66;83.20
5350;BME280;2697;42.144;24.794;2023-06-04T11:19:16;158992.03;;;24.79;89.88
5350;BME280;2697;42.144;24.794;2023-06-04T11:21:42;159010.69;;;24.86;87.23
5350;BME280;2697;42.144;24.794;2023-06-04T11:24:08;159010.69;;;24.86;90.57
5350;BME280;2697;42.144;24.794;2023-06-04T11:26:35;158896.25;;;24.42;90.83
5350;BME280;2697;42.144;24.794;2023-06-04T11:29:02;158905.53;;;24.46;87.70
5350;BME280;2697;42.144;24.794;2023-06-04T11:31:40;158897.59;;;24.43;85.03
5350;BME280;2697;42.144;24.794;2023-06-04T11:34:07;158946.81;;;24.62;88.33
5350;BME280;2697;42.144;24.794;2023-06-04T11:36:32;158993.38;;;24.80;82.84
5350;BME280;2697;42.144;24.794;2023-06-04T11:39:00;159012.00;;;24.87;88.21
5350;BME280;2697;42.144;24.794;2023-06-04T11:41:33;158981.38;;;24.75;88.20
5350;BME280;2697;42.144;24.794;2023-06-04T11:44:04;158954.75;;;24.65;81.01
5350;BME280;2697;42.144;24.794;2023-06-04T11:46:33;159033.28;;;24.95;83.32
5350;BME280;2697;42.144;24.794;2023-06-04T11:48:59;159027.94;;;24.93;85.75
5350;BME280;2697;42.144;24.794;2023-06-04T11:51:25;159050.56;;;25.01;82.92
5350;BME280;2697;42.144;24.794;2023-06-04T11:53:51;158950.78;;;24.63;88.24
5350;BME280;2697;42.144;24.794;2023-06-04T11:56:17;159074.56;;;25.11;83.87
5350;BME280;2697;42.144;24.794;2023-06-04T11:58:43;159138.47;;;25.35;79.10
5350;BME280;2697;42.144;24.794;2023-06-04T12:01:11;159118.50;;;25.27;82.26
5350;BME280;2697;42.144;24.794;2023-06-04T12:03:41;159057.31;;;25.04;80.05
5350;BME280;2697;42.144;24.794;2023-06-04T12:08:54;159270.28;;;25.85;79.02
5350;BME280;2697;42.144;24.794;2023-06-04T12:11:31;159356.84;;;26.19;79.08
5350;BME280;2697;42.144;24.794;2023-06-04T12:14:04;159374.16;;;26.25;76.62
5350;BME280;2697;42.144;24.794;2023-06-04T12:16:30;159382.13;;;26.28;77.14
5350;BME280;2697;42.144;24.794;2023-06-04T12:19:12;159456.78;;;26.57;77.93
5350;BME280;2697;42.144;24.794;2023-06-04T12:21:40;159539.34;;;26.88;74.00
5350;BME280;2697;42.144;24.794;2023-06-04T12:26:35;159479.41;;;26.65;68.85
5350;BME280;2697;42.144;24.794;2023-06-04T12:29:14;159359.50;;;26.20;71.44
5350;BME280;2697;42.144;24.794;2023-06-04T12:31:42;159294.25;;;25.95;74.99
5350;BME280;2697;42.144;24.794;2023-06-04T12:34:08;159282.28;;;25.90;75.51
5350;BME280;2697;42.144;24.794;2023-06-04T12:36:34;159190.38;;;25.55;74.50
5350;BME280;2697;42.144;24.794;2023-06-04T12:39:01;159258.31;;;25.81;73.25
5350;BME280;2697;42.144;24.794;2023-06-04T12:41:28;159267.63;;;25.84;74.44
5350;BME280;2697;42.144;24.794;2023-06-04T12:43:54;159304.91;;;25.99;75.02
5350;BME280;2697;42.144;24.794;2023-06-04T12:46:20;159294.25;;;25.95;75.11
5350;BME280;2697;42.144;24.794;2023-06-04T12:48:45;159308.91;;;26.00;74.52
5350;BME280;2697;42.144;24.794;2023-06-04T12:51:11;159328.88;;;26.08;76.05
5350;BME280;2697;42.144;24.794;2023-06-04T12:53:40;159438.13;;;26.50;69.57
5350;BME280;2697;42.144;24.794;2023-06-04T12:56:06;159342.19;;;26.13;71.72
5350;BME280;2697;42.144;24.794;2023-06-04T12:58:31;159374.16;;;26.25;71.51